<?xml version="1.0" encoding="UTF-8"?><gpx xmlns="http://www.topografix.com/GPX/1/1" version="1.1" creator="iOrient"><trk><name>Квест "Код города"</name><trkseg><trkpt lat="56.8352443" lon="53.1270324"><time>2024-11-03T10:07:07.847</time></trkpt><trkpt lat="56.8352645" lon="53.1270234"><time>2024-11-03T10:07:08.933</time></trkpt><trkpt lat="56.8353169" lon="53.1270241"><time>2024-11-03T10:07:22.823</time></trkpt><trkpt lat="56.8353430" lon="53.1271179"><time>2024-11-03T10:07:42.820</time></trkpt><trkpt lat="56.8353727" lon="53.1271841"><time>2024-11-03T10:07:45.813</time></trkpt><trkpt lat="56.8354166" lon="53.1272401"><time>2024-11-03T10:07:49.823</time></trkpt><trkpt lat="56.8354564" lon="53.1272976"><time>2024-11-03T10:07:52.827</time></trkpt><trkpt lat="56.8354733" lon="53.1273854"><time>2024-11-03T10:07:55.843</time></trkpt><trkpt lat="56.8354804" lon="53.1273874"><time>2024-11-03T10:07:56.937</time></trkpt><trkpt lat="56.8354913" lon="53.1274962"><time>2024-11-03T10:08:00.820</time></trkpt><trkpt lat="56.8354903" lon="53.1276032"><time>2024-11-03T10:08:05.830</time></trkpt><trkpt lat="56.8355086" lon="53.1276812"><time>2024-11-03T10:08:08.823</time></trkpt><trkpt lat="56.8354966" lon="53.1277635"><time>2024-11-03T10:08:11.823</time></trkpt><trkpt lat="56.8354718" lon="53.1278343"><time>2024-11-03T10:08:14.837</time></trkpt><trkpt lat="56.8354531" lon="53.1279317"><time>2024-11-03T10:08:18.833</time></trkpt><trkpt lat="56.8354606" lon="53.1280263"><time>2024-11-03T10:08:21.820</time></trkpt><trkpt lat="56.8354611" lon="53.1281264"><time>2024-11-03T10:08:24.823</time></trkpt><trkpt lat="56.8354629" lon="53.1282414"><time>2024-11-03T10:08:27.833</time></trkpt><trkpt lat="56.8354492" lon="53.1283496"><time>2024-11-03T10:08:30.827</time></trkpt><trkpt lat="56.8354084" lon="53.1284077"><time>2024-11-03T10:08:33.823</time></trkpt><trkpt lat="56.8353566" lon="53.1284029"><time>2024-11-03T10:08:37.827</time></trkpt><trkpt lat="56.8353115" lon="53.1284043"><time>2024-11-03T10:08:40.833</time></trkpt><trkpt lat="56.8352655" lon="53.1284056"><time>2024-11-03T10:08:43.833</time></trkpt><trkpt lat="56.8352029" lon="53.1284374"><time>2024-11-03T10:08:47.817</time></trkpt><trkpt lat="56.8351595" lon="53.1284687"><time>2024-11-03T10:08:50.827</time></trkpt><trkpt lat="56.8351156" lon="53.1284904"><time>2024-11-03T10:08:54.817</time></trkpt><trkpt lat="56.8350629" lon="53.1284907"><time>2024-11-03T10:08:59.837</time></trkpt><trkpt lat="56.8350087" lon="53.1285171"><time>2024-11-03T10:09:04.817</time></trkpt><trkpt lat="56.8349753" lon="53.1285774"><time>2024-11-03T10:09:10.820</time></trkpt><trkpt lat="56.8349318" lon="53.1286010"><time>2024-11-03T10:09:24.827</time></trkpt><trkpt lat="56.8348907" lon="53.1285647"><time>2024-11-03T10:09:27.833</time></trkpt><trkpt lat="56.8348387" lon="53.1285596"><time>2024-11-03T10:09:31.833</time></trkpt><trkpt lat="56.8347931" lon="53.1285563"><time>2024-11-03T10:09:34.857</time></trkpt><trkpt lat="56.8347424" lon="53.1285585"><time>2024-11-03T10:09:38.837</time></trkpt><trkpt lat="56.8346910" lon="53.1285677"><time>2024-11-03T10:09:43.827</time></trkpt><trkpt lat="56.8346465" lon="53.1285832"><time>2024-11-03T10:09:47.830</time></trkpt><trkpt lat="56.8344498" lon="53.1294219"><time>2024-11-03T10:11:52.527</time></trkpt><trkpt lat="56.8344498" lon="53.1294219"><time>2024-11-03T10:11:52.560</time></trkpt><trkpt lat="56.8344458" lon="53.1294196"><time>2024-11-03T10:11:53.623</time></trkpt><trkpt lat="56.8344486" lon="53.1294233"><time>2024-11-03T10:11:54.737</time></trkpt><trkpt lat="56.8344412" lon="53.1295053"><time>2024-11-03T10:12:24.820</time></trkpt><trkpt lat="56.8349123" lon="53.1301713"><time>2024-11-03T10:12:55.817</time></trkpt><trkpt lat="56.8344289" lon="53.1294894"><time>2024-11-03T10:12:56.840</time></trkpt><trkpt lat="56.8344570" lon="53.1295561"><time>2024-11-03T10:13:09.813</time></trkpt><trkpt lat="56.8344458" lon="53.1296382"><time>2024-11-03T10:13:16.833</time></trkpt><trkpt lat="56.8344083" lon="53.1296910"><time>2024-11-03T10:13:21.827</time></trkpt><trkpt lat="56.8343699" lon="53.1297772"><time>2024-11-03T10:13:25.830</time></trkpt><trkpt lat="56.8343147" lon="53.1297926"><time>2024-11-03T10:13:30.843</time></trkpt><trkpt lat="56.8343262" lon="53.1297095"><time>2024-11-03T10:13:49.817</time></trkpt><trkpt lat="56.8343719" lon="53.1296742"><time>2024-11-03T10:13:53.817</time></trkpt><trkpt lat="56.8344174" lon="53.1296654"><time>2024-11-03T10:13:56.817</time></trkpt><trkpt lat="56.8344590" lon="53.1295913"><time>2024-11-03T10:14:00.817</time></trkpt><trkpt lat="56.8344638" lon="53.1295023"><time>2024-11-03T10:14:04.817</time></trkpt><trkpt lat="56.8344290" lon="53.1295555"><time>2024-11-03T10:14:23.833</time></trkpt><trkpt lat="56.8343864" lon="53.1295926"><time>2024-11-03T10:14:28.817</time></trkpt><trkpt lat="56.8343465" lon="53.1296558"><time>2024-11-03T10:14:31.820</time></trkpt><trkpt lat="56.8343207" lon="53.1297514"><time>2024-11-03T10:14:35.820</time></trkpt><trkpt lat="56.8342835" lon="53.1298037"><time>2024-11-03T10:14:38.823</time></trkpt><trkpt lat="56.8342319" lon="53.1298366"><time>2024-11-03T10:14:42.843</time></trkpt><trkpt lat="56.8342234" lon="53.1298657"><time>2024-11-03T10:14:43.963</time></trkpt><trkpt lat="56.8341739" lon="53.1298716"><time>2024-11-03T10:14:46.827</time></trkpt><trkpt lat="56.8341210" lon="53.1298980"><time>2024-11-03T10:14:50.827</time></trkpt><trkpt lat="56.8340758" lon="53.1298802"><time>2024-11-03T10:14:54.837</time></trkpt><trkpt lat="56.8340320" lon="53.1299396"><time>2024-11-03T10:14:59.843</time></trkpt><trkpt lat="56.8339825" lon="53.1299499"><time>2024-11-03T10:15:03.837</time></trkpt><trkpt lat="56.8339351" lon="53.1299601"><time>2024-11-03T10:15:07.833</time></trkpt><trkpt lat="56.8338860" lon="53.1299874"><time>2024-11-03T10:15:11.837</time></trkpt><trkpt lat="56.8338316" lon="53.1299947"><time>2024-11-03T10:15:15.840</time></trkpt><trkpt lat="56.8337827" lon="53.1300172"><time>2024-11-03T10:15:18.830</time></trkpt><trkpt lat="56.8337371" lon="53.1300558"><time>2024-11-03T10:15:21.817</time></trkpt><trkpt lat="56.8336917" lon="53.1300879"><time>2024-11-03T10:15:24.843</time></trkpt><trkpt lat="56.8336464" lon="53.1301117"><time>2024-11-03T10:15:27.847</time></trkpt><trkpt lat="56.8330726" lon="53.1307045"><time>2024-11-03T10:16:14.590</time></trkpt><trkpt lat="56.8330998" lon="53.1305751"><time>2024-11-03T10:16:14.807</time></trkpt><trkpt lat="56.8330056" lon="53.1303963"><time>2024-11-03T10:16:15.820</time></trkpt><trkpt lat="56.8329587" lon="53.1303114"><time>2024-11-03T10:16:17.810</time></trkpt><trkpt lat="56.8329157" lon="53.1302573"><time>2024-11-03T10:16:23.833</time></trkpt><trkpt lat="56.8328697" lon="53.1302149"><time>2024-11-03T10:16:27.833</time></trkpt><trkpt lat="56.8328190" lon="53.1302089"><time>2024-11-03T10:16:31.837</time></trkpt><trkpt lat="56.8327723" lon="53.1302118"><time>2024-11-03T10:16:34.817</time></trkpt><trkpt lat="56.8327191" lon="53.1302120"><time>2024-11-03T10:16:37.813</time></trkpt><trkpt lat="56.8326773" lon="53.1302442"><time>2024-11-03T10:16:40.823</time></trkpt><trkpt lat="56.8326318" lon="53.1303049"><time>2024-11-03T10:16:45.823</time></trkpt><trkpt lat="56.8325812" lon="53.1303184"><time>2024-11-03T10:16:50.833</time></trkpt><trkpt lat="56.8325298" lon="53.1302999"><time>2024-11-03T10:16:54.830</time></trkpt><trkpt lat="56.8324839" lon="53.1302849"><time>2024-11-03T10:16:58.850</time></trkpt><trkpt lat="56.8324805" lon="53.1302716"><time>2024-11-03T10:16:59.947</time></trkpt><trkpt lat="56.8324364" lon="53.1302092"><time>2024-11-03T10:17:03.830</time></trkpt><trkpt lat="56.8323817" lon="53.1302311"><time>2024-11-03T10:17:06.833</time></trkpt><trkpt lat="56.8323203" lon="53.1302392"><time>2024-11-03T10:17:09.827</time></trkpt><trkpt lat="56.8322648" lon="53.1302614"><time>2024-11-03T10:17:12.830</time></trkpt><trkpt lat="56.8307275" lon="53.1307833"><time>2024-11-03T10:19:11.190</time></trkpt><trkpt lat="56.8307275" lon="53.1307833"><time>2024-11-03T10:19:11.227</time></trkpt><trkpt lat="56.8307985" lon="53.1307618"><time>2024-11-03T10:19:12.307</time></trkpt><trkpt lat="56.8307996" lon="53.1307520"><time>2024-11-03T10:19:13.423</time></trkpt><trkpt lat="56.8308446" lon="53.1307563"><time>2024-11-03T10:19:18.827</time></trkpt><trkpt lat="56.8308198" lon="53.1308303"><time>2024-11-03T10:19:27.830</time></trkpt><trkpt lat="56.8308046" lon="53.1309141"><time>2024-11-03T10:19:31.827</time></trkpt><trkpt lat="56.8307824" lon="53.1310059"><time>2024-11-03T10:19:35.837</time></trkpt><trkpt lat="56.8307479" lon="53.1310613"><time>2024-11-03T10:19:38.837</time></trkpt><trkpt lat="56.8307048" lon="53.1310988"><time>2024-11-03T10:19:41.830</time></trkpt><trkpt lat="56.8306566" lon="53.1311140"><time>2024-11-03T10:19:44.830</time></trkpt><trkpt lat="56.8306058" lon="53.1311208"><time>2024-11-03T10:19:47.853</time></trkpt><trkpt lat="56.8305559" lon="53.1311283"><time>2024-11-03T10:19:50.820</time></trkpt><trkpt lat="56.8305081" lon="53.1311215"><time>2024-11-03T10:19:53.847</time></trkpt><trkpt lat="56.8304629" lon="53.1311224"><time>2024-11-03T10:19:56.850</time></trkpt><trkpt lat="56.8304025" lon="53.1311315"><time>2024-11-03T10:20:00.850</time></trkpt><trkpt lat="56.8303575" lon="53.1311383"><time>2024-11-03T10:20:03.830</time></trkpt><trkpt lat="56.8303117" lon="53.1311589"><time>2024-11-03T10:20:06.850</time></trkpt><trkpt lat="56.8302671" lon="53.1311738"><time>2024-11-03T10:20:09.857</time></trkpt><trkpt lat="56.8302215" lon="53.1311896"><time>2024-11-03T10:20:13.827</time></trkpt><trkpt lat="56.8301668" lon="53.1311837"><time>2024-11-03T10:20:17.870</time></trkpt><trkpt lat="56.8301259" lon="53.1311479"><time>2024-11-03T10:20:20.837</time></trkpt><trkpt lat="56.8300745" lon="53.1311061"><time>2024-11-03T10:20:24.833</time></trkpt><trkpt lat="56.8300208" lon="53.1310751"><time>2024-11-03T10:20:28.833</time></trkpt><trkpt lat="56.8251631" lon="53.1321759"><time>2024-11-03T10:27:38.867</time></trkpt><trkpt lat="56.8251631" lon="53.1321759"><time>2024-11-03T10:27:38.903</time></trkpt><trkpt lat="56.8251657" lon="53.1322093"><time>2024-11-03T10:27:39.970</time></trkpt><trkpt lat="56.8251843" lon="53.1321064"><time>2024-11-03T10:27:41.080</time></trkpt><trkpt lat="56.8251582" lon="53.1320224"><time>2024-11-03T10:28:03.820</time></trkpt><trkpt lat="56.8251247" lon="53.1319422"><time>2024-11-03T10:28:08.820</time></trkpt><trkpt lat="56.8251143" lon="53.1318530"><time>2024-11-03T10:28:12.820</time></trkpt><trkpt lat="56.8250622" lon="53.1318154"><time>2024-11-03T10:28:19.827</time></trkpt><trkpt lat="56.8250169" lon="53.1318662"><time>2024-11-03T10:28:23.830</time></trkpt><trkpt lat="56.8249923" lon="53.1319429"><time>2024-11-03T10:28:27.840</time></trkpt><trkpt lat="56.8249655" lon="53.1320115"><time>2024-11-03T10:28:31.843</time></trkpt><trkpt lat="56.8249168" lon="53.1320610"><time>2024-11-03T10:28:36.843</time></trkpt><trkpt lat="56.8248638" lon="53.1320821"><time>2024-11-03T10:28:40.833</time></trkpt><trkpt lat="56.8248178" lon="53.1321123"><time>2024-11-03T10:28:43.837</time></trkpt><trkpt lat="56.8224688" lon="53.1334919"><time>2024-11-03T10:31:56.900</time></trkpt><trkpt lat="56.8224705" lon="53.1334572"><time>2024-11-03T10:31:57.990</time></trkpt><trkpt lat="56.8224702" lon="53.1335487"><time>2024-11-03T10:32:04.820</time></trkpt><trkpt lat="56.8224611" lon="53.1336420"><time>2024-11-03T10:32:10.830</time></trkpt><trkpt lat="56.8224434" lon="53.1337201"><time>2024-11-03T10:32:14.827</time></trkpt><trkpt lat="56.8223997" lon="53.1337772"><time>2024-11-03T10:32:19.823</time></trkpt><trkpt lat="56.8223679" lon="53.1338371"><time>2024-11-03T10:32:23.817</time></trkpt><trkpt lat="56.8223408" lon="53.1339251"><time>2024-11-03T10:32:27.827</time></trkpt><trkpt lat="56.8223234" lon="53.1340096"><time>2024-11-03T10:32:33.850</time></trkpt><trkpt lat="56.8223464" lon="53.1340069"><time>2024-11-03T10:32:34.937</time></trkpt><trkpt lat="56.8223136" lon="53.1340631"><time>2024-11-03T10:32:38.850</time></trkpt><trkpt lat="56.8222875" lon="53.1341349"><time>2024-11-03T10:32:41.857</time></trkpt><trkpt lat="56.8222741" lon="53.1342138"><time>2024-11-03T10:32:45.843</time></trkpt><trkpt lat="56.8222458" lon="53.1342921"><time>2024-11-03T10:32:49.857</time></trkpt><trkpt lat="56.8222823" lon="53.1343436"><time>2024-11-03T10:33:24.820</time></trkpt><trkpt lat="56.8222523" lon="53.1344434"><time>2024-11-03T10:33:28.827</time></trkpt><trkpt lat="56.8222523" lon="53.1344434"><time>2024-11-03T10:33:28.857</time></trkpt><trkpt lat="56.8222535" lon="53.1345340"><time>2024-11-03T10:33:32.833</time></trkpt><trkpt lat="56.8222442" lon="53.1345608"><time>2024-11-03T10:33:33.920</time></trkpt><trkpt lat="56.8222333" lon="53.1346417"><time>2024-11-03T10:33:50.823</time></trkpt><trkpt lat="56.8221844" lon="53.1346403"><time>2024-11-03T10:34:02.833</time></trkpt><trkpt lat="56.8221327" lon="53.1346380"><time>2024-11-03T10:34:08.840</time></trkpt><trkpt lat="56.8221879" lon="53.1346583"><time>2024-11-03T10:34:15.837</time></trkpt><trkpt lat="56.8222425" lon="53.1346740"><time>2024-11-03T10:34:19.843</time></trkpt><trkpt lat="56.8222970" lon="53.1346493"><time>2024-11-03T10:34:23.833</time></trkpt><trkpt lat="56.8222490" lon="53.1346047"><time>2024-11-03T10:34:43.823</time></trkpt><trkpt lat="56.8221967" lon="53.1346194"><time>2024-11-03T10:34:47.817</time></trkpt><trkpt lat="56.8221496" lon="53.1346389"><time>2024-11-03T10:34:52.820</time></trkpt><trkpt lat="56.8221590" lon="53.1347278"><time>2024-11-03T10:34:58.823</time></trkpt><trkpt lat="56.8221527" lon="53.1348175"><time>2024-11-03T10:35:03.827</time></trkpt><trkpt lat="56.8221252" lon="53.1349073"><time>2024-11-03T10:35:08.823</time></trkpt><trkpt lat="56.8220907" lon="53.1349793"><time>2024-11-03T10:35:13.837</time></trkpt><trkpt lat="56.8220643" lon="53.1350728"><time>2024-11-03T10:35:17.840</time></trkpt><trkpt lat="56.8220312" lon="53.1351512"><time>2024-11-03T10:35:22.830</time></trkpt><trkpt lat="56.8219985" lon="53.1352160"><time>2024-11-03T10:35:25.837</time></trkpt><trkpt lat="56.8204617" lon="53.1395181"><time>2024-11-03T10:41:29.877</time></trkpt><trkpt lat="56.8204617" lon="53.1395181"><time>2024-11-03T10:41:29.910</time></trkpt><trkpt lat="56.8204722" lon="53.1395395"><time>2024-11-03T10:41:30.960</time></trkpt><trkpt lat="56.8204876" lon="53.1395606"><time>2024-11-03T10:41:32.057</time></trkpt><trkpt lat="56.8204473" lon="53.1395237"><time>2024-11-03T10:41:48.817</time></trkpt><trkpt lat="56.8204544" lon="53.1396137"><time>2024-11-03T10:42:17.827</time></trkpt><trkpt lat="56.8204495" lon="53.1397088"><time>2024-11-03T10:42:22.827</time></trkpt><trkpt lat="56.8204482" lon="53.1398116"><time>2024-11-03T10:42:26.820</time></trkpt><trkpt lat="56.8204945" lon="53.1398358"><time>2024-11-03T10:42:30.823</time></trkpt><trkpt lat="56.8205473" lon="53.1398819"><time>2024-11-03T10:42:34.827</time></trkpt><trkpt lat="56.8205824" lon="53.1399455"><time>2024-11-03T10:42:38.833</time></trkpt><trkpt lat="56.8206054" lon="53.1400265"><time>2024-11-03T10:42:42.830</time></trkpt><trkpt lat="56.8206160" lon="53.1401175"><time>2024-11-03T10:42:47.833</time></trkpt><trkpt lat="56.8206568" lon="53.1401812"><time>2024-11-03T10:42:51.833</time></trkpt><trkpt lat="56.8232413" lon="53.1393479"><time>2024-11-03T10:47:27.297</time></trkpt><trkpt lat="56.8232413" lon="53.1393479"><time>2024-11-03T10:47:27.333</time></trkpt><trkpt lat="56.8232487" lon="53.1393567"><time>2024-11-03T10:47:28.397</time></trkpt><trkpt lat="56.8232527" lon="53.1393738"><time>2024-11-03T10:47:29.507</time></trkpt><trkpt lat="56.8232624" lon="53.1394566"><time>2024-11-03T10:47:32.823</time></trkpt><trkpt lat="56.8233091" lon="53.1394695"><time>2024-11-03T10:47:51.830</time></trkpt><trkpt lat="56.8233599" lon="53.1394523"><time>2024-11-03T10:47:55.830</time></trkpt><trkpt lat="56.8234156" lon="53.1394126"><time>2024-11-03T10:47:59.823</time></trkpt><trkpt lat="56.8234488" lon="53.1393408"><time>2024-11-03T10:48:05.827</time></trkpt><trkpt lat="56.8278876" lon="53.1365074"><time>2024-11-03T10:56:20.837</time></trkpt><trkpt lat="56.8278876" lon="53.1365074"><time>2024-11-03T10:56:20.867</time></trkpt><trkpt lat="56.8278025" lon="53.1364759"><time>2024-11-03T10:56:21.943</time></trkpt><trkpt lat="56.8278207" lon="53.1364938"><time>2024-11-03T10:56:23.103</time></trkpt><trkpt lat="56.8278656" lon="53.1364933"><time>2024-11-03T10:56:24.827</time></trkpt><trkpt lat="56.8278992" lon="53.1365479"><time>2024-11-03T10:56:48.827</time></trkpt><trkpt lat="56.8278989" lon="53.1366480"><time>2024-11-03T10:56:56.837</time></trkpt><trkpt lat="56.8278991" lon="53.1367446"><time>2024-11-03T10:57:00.833</time></trkpt><trkpt lat="56.8279023" lon="53.1368277"><time>2024-11-03T10:57:04.833</time></trkpt><trkpt lat="56.8279186" lon="53.1369114"><time>2024-11-03T10:57:09.833</time></trkpt><trkpt lat="56.8279682" lon="53.1369525"><time>2024-11-03T10:57:14.833</time></trkpt><trkpt lat="56.8280170" lon="53.1369263"><time>2024-11-03T10:57:18.833</time></trkpt><trkpt lat="56.8280655" lon="53.1368925"><time>2024-11-03T10:57:22.837</time></trkpt><trkpt lat="56.8281121" lon="53.1368806"><time>2024-11-03T10:57:26.850</time></trkpt><trkpt lat="56.8281630" lon="53.1368781"><time>2024-11-03T10:57:30.837</time></trkpt><trkpt lat="56.8282046" lon="53.1368472"><time>2024-11-03T10:57:34.850</time></trkpt><trkpt lat="56.8282533" lon="53.1368169"><time>2024-11-03T10:57:38.837</time></trkpt><trkpt lat="56.8283087" lon="53.1368056"><time>2024-11-03T10:57:42.847</time></trkpt><trkpt lat="56.8283627" lon="53.1368089"><time>2024-11-03T10:57:46.843</time></trkpt><trkpt lat="56.8284146" lon="53.1367840"><time>2024-11-03T10:57:50.843</time></trkpt><trkpt lat="56.8284712" lon="53.1367517"><time>2024-11-03T10:57:54.837</time></trkpt><trkpt lat="56.8285252" lon="53.1367198"><time>2024-11-03T10:57:58.840</time></trkpt><trkpt lat="56.8285704" lon="53.1367008"><time>2024-11-03T10:58:02.847</time></trkpt><trkpt lat="56.8286302" lon="53.1366836"><time>2024-11-03T10:58:06.847</time></trkpt><trkpt lat="56.8286781" lon="53.1366839"><time>2024-11-03T10:58:09.843</time></trkpt><trkpt lat="56.8287366" lon="53.1366953"><time>2024-11-03T10:58:13.837</time></trkpt><trkpt lat="56.8287913" lon="53.1366957"><time>2024-11-03T10:58:17.850</time></trkpt><trkpt lat="56.8288440" lon="53.1366920"><time>2024-11-03T10:58:21.840</time></trkpt><trkpt lat="56.8301659" lon="53.1367396"><time>2024-11-03T11:00:10.297</time></trkpt><trkpt lat="56.8302002" lon="53.1368668"><time>2024-11-03T11:00:11.393</time></trkpt><trkpt lat="56.8301343" lon="53.1369128"><time>2024-11-03T11:00:13.830</time></trkpt><trkpt lat="56.8301360" lon="53.1370020"><time>2024-11-03T11:00:17.827</time></trkpt><trkpt lat="56.8301491" lon="53.1370990"><time>2024-11-03T11:00:20.837</time></trkpt><trkpt lat="56.8301442" lon="53.1371964"><time>2024-11-03T11:00:24.830</time></trkpt><trkpt lat="56.8301326" lon="53.1372961"><time>2024-11-03T11:00:28.833</time></trkpt><trkpt lat="56.8301457" lon="53.1373915"><time>2024-11-03T11:00:32.837</time></trkpt><trkpt lat="56.8301505" lon="53.1374876"><time>2024-11-03T11:00:36.840</time></trkpt><trkpt lat="56.8301456" lon="53.1375802"><time>2024-11-03T11:00:40.847</time></trkpt><trkpt lat="56.8301414" lon="53.1376686"><time>2024-11-03T11:00:44.837</time></trkpt><trkpt lat="56.8301347" lon="53.1377650"><time>2024-11-03T11:00:48.840</time></trkpt><trkpt lat="56.8301381" lon="53.1378597"><time>2024-11-03T11:00:52.850</time></trkpt><trkpt lat="56.8301480" lon="53.1379481"><time>2024-11-03T11:00:56.830</time></trkpt><trkpt lat="56.8301897" lon="53.1380143"><time>2024-11-03T11:01:00.843</time></trkpt><trkpt lat="56.8302358" lon="53.1380581"><time>2024-11-03T11:01:04.847</time></trkpt><trkpt lat="56.8302869" lon="53.1380967"><time>2024-11-03T11:01:08.847</time></trkpt><trkpt lat="56.8309622" lon="53.1387441"><time>2024-11-03T11:02:15.630</time></trkpt><trkpt lat="56.8309622" lon="53.1387441"><time>2024-11-03T11:02:15.653</time></trkpt><trkpt lat="56.8309518" lon="53.1387397"><time>2024-11-03T11:02:16.720</time></trkpt><trkpt lat="56.8309599" lon="53.1387333"><time>2024-11-03T11:02:17.817</time></trkpt><trkpt lat="56.8309477" lon="53.1388277"><time>2024-11-03T11:02:22.833</time></trkpt><trkpt lat="56.8309780" lon="53.1388950"><time>2024-11-03T11:02:26.840</time></trkpt><trkpt lat="56.8309892" lon="53.1389893"><time>2024-11-03T11:02:31.833</time></trkpt><trkpt lat="56.8309677" lon="53.1390643"><time>2024-11-03T11:02:34.833</time></trkpt><trkpt lat="56.8309912" lon="53.1391346"><time>2024-11-03T11:03:06.833</time></trkpt><trkpt lat="56.8309733" lon="53.1392103"><time>2024-11-03T11:03:10.837</time></trkpt><trkpt lat="56.8309462" lon="53.1392896"><time>2024-11-03T11:03:14.843</time></trkpt><trkpt lat="56.8309177" lon="53.1393754"><time>2024-11-03T11:03:19.857</time></trkpt><trkpt lat="56.8308695" lon="53.1394003"><time>2024-11-03T11:03:22.840</time></trkpt><trkpt lat="56.8308213" lon="53.1394350"><time>2024-11-03T11:03:25.857</time></trkpt><trkpt lat="56.8307700" lon="53.1394681"><time>2024-11-03T11:03:28.857</time></trkpt><trkpt lat="56.8275504" lon="53.1416367"><time>2024-11-03T11:09:12.127</time></trkpt><trkpt lat="56.8275504" lon="53.1416367"><time>2024-11-03T11:09:12.147</time></trkpt><trkpt lat="56.8275844" lon="53.1417392"><time>2024-11-03T11:09:13.237</time></trkpt><trkpt lat="56.8275762" lon="53.1417294"><time>2024-11-03T11:09:14.337</time></trkpt><trkpt lat="56.8275554" lon="53.1418036"><time>2024-11-03T11:09:30.840</time></trkpt><trkpt lat="56.8275756" lon="53.1418829"><time>2024-11-03T11:09:42.837</time></trkpt><trkpt lat="56.8276368" lon="53.1419035"><time>2024-11-03T11:09:46.830</time></trkpt><trkpt lat="56.8276845" lon="53.1419280"><time>2024-11-03T11:09:50.840</time></trkpt><trkpt lat="56.8277416" lon="53.1419270"><time>2024-11-03T11:09:54.830</time></trkpt><trkpt lat="56.8277797" lon="53.1419819"><time>2024-11-03T11:09:59.837</time></trkpt><trkpt lat="56.8277880" lon="53.1420792"><time>2024-11-03T11:10:04.837</time></trkpt><trkpt lat="56.8277933" lon="53.1421647"><time>2024-11-03T11:10:08.830</time></trkpt><trkpt lat="56.8277529" lon="53.1422486"><time>2024-11-03T11:10:12.840</time></trkpt><trkpt lat="56.8285900" lon="53.1480695"><time>2024-11-03T11:17:16.100</time></trkpt><trkpt lat="56.8285959" lon="53.1480643"><time>2024-11-03T11:17:17.200</time></trkpt><trkpt lat="56.8284954" lon="53.1481779"><time>2024-11-03T11:17:18.853</time></trkpt><trkpt lat="56.8284954" lon="53.1481779"><time>2024-11-03T11:17:18.887</time></trkpt><trkpt lat="56.8284392" lon="53.1482312"><time>2024-11-03T11:17:22.847</time></trkpt><trkpt lat="56.8284266" lon="53.1482334"><time>2024-11-03T11:17:23.947</time></trkpt><trkpt lat="56.8283837" lon="53.1482840"><time>2024-11-03T11:17:27.837</time></trkpt><trkpt lat="56.8283360" lon="53.1482570"><time>2024-11-03T11:17:31.840</time></trkpt><trkpt lat="56.8283062" lon="53.1481877"><time>2024-11-03T11:17:37.853</time></trkpt><trkpt lat="56.8283568" lon="53.1482051"><time>2024-11-03T11:17:45.837</time></trkpt><trkpt lat="56.8283729" lon="53.1482832"><time>2024-11-03T11:17:52.837</time></trkpt><trkpt lat="56.8284043" lon="53.1483465"><time>2024-11-03T11:17:56.847</time></trkpt><trkpt lat="56.8284384" lon="53.1484125"><time>2024-11-03T11:18:00.843</time></trkpt><trkpt lat="56.8284765" lon="53.1484622"><time>2024-11-03T11:18:05.847</time></trkpt><trkpt lat="56.8285295" lon="53.1484834"><time>2024-11-03T11:18:11.847</time></trkpt><trkpt lat="56.8285827" lon="53.1484670"><time>2024-11-03T11:18:16.847</time></trkpt><trkpt lat="56.8286286" lon="53.1484613"><time>2024-11-03T11:18:20.840</time></trkpt><trkpt lat="56.8286798" lon="53.1484600"><time>2024-11-03T11:18:24.840</time></trkpt><trkpt lat="56.8314980" lon="53.1504761"><time>2024-11-03T11:23:46.627</time></trkpt><trkpt lat="56.8314980" lon="53.1504761"><time>2024-11-03T11:23:46.657</time></trkpt><trkpt lat="56.8314601" lon="53.1502994"><time>2024-11-03T11:23:47.720</time></trkpt><trkpt lat="56.8314648" lon="53.1502808"><time>2024-11-03T11:23:48.830</time></trkpt><trkpt lat="56.8315099" lon="53.1502851"><time>2024-11-03T11:23:51.837</time></trkpt><trkpt lat="56.8315626" lon="53.1503460"><time>2024-11-03T11:23:53.840</time></trkpt><trkpt lat="56.8316129" lon="53.1503651"><time>2024-11-03T11:24:07.837</time></trkpt><trkpt lat="56.8316614" lon="53.1503544"><time>2024-11-03T11:24:25.840</time></trkpt><trkpt lat="56.8317129" lon="53.1503409"><time>2024-11-03T11:24:39.843</time></trkpt><trkpt lat="56.8336429" lon="53.1534563"><time>2024-11-03T11:28:54.073</time></trkpt><trkpt lat="56.8336429" lon="53.1534563"><time>2024-11-03T11:28:54.110</time></trkpt><trkpt lat="56.8335942" lon="53.1534763"><time>2024-11-03T11:28:55.167</time></trkpt><trkpt lat="56.8335277" lon="53.1534977"><time>2024-11-03T11:28:56.250</time></trkpt><trkpt lat="56.8335745" lon="53.1535020"><time>2024-11-03T11:29:18.853</time></trkpt><trkpt lat="56.8336154" lon="53.1535438"><time>2024-11-03T11:29:50.847</time></trkpt><trkpt lat="56.8331855" lon="53.1435438"><time>2024-11-03T11:39:43.690</time></trkpt><trkpt lat="56.8331855" lon="53.1435438"><time>2024-11-03T11:39:43.723</time></trkpt><trkpt lat="56.8331803" lon="53.1435329"><time>2024-11-03T11:39:44.790</time></trkpt><trkpt lat="56.8331780" lon="53.1435298"><time>2024-11-03T11:39:45.870</time></trkpt><trkpt lat="56.8332240" lon="53.1435561"><time>2024-11-03T11:40:18.857</time></trkpt><trkpt lat="56.8332696" lon="53.1435789"><time>2024-11-03T11:40:21.857</time></trkpt><trkpt lat="56.8333150" lon="53.1435823"><time>2024-11-03T11:40:25.847</time></trkpt><trkpt lat="56.8333607" lon="53.1435487"><time>2024-11-03T11:40:29.847</time></trkpt><trkpt lat="56.8333880" lon="53.1434838"><time>2024-11-03T11:40:33.850</time></trkpt><trkpt lat="56.8334342" lon="53.1434848"><time>2024-11-03T11:40:44.853</time></trkpt><trkpt lat="56.8380272" lon="53.1429274"><time>2024-11-03T11:52:50.863</time></trkpt><trkpt lat="56.8380459" lon="53.1428692"><time>2024-11-03T11:52:51.953</time></trkpt><trkpt lat="56.8380559" lon="53.1429492"><time>2024-11-03T11:52:54.850</time></trkpt><trkpt lat="56.8379955" lon="53.1429584"><time>2024-11-03T11:52:59.853</time></trkpt><trkpt lat="56.8379972" lon="53.1429534"><time>2024-11-03T11:53:06.283</time></trkpt><trkpt lat="56.8380369" lon="53.1429237"><time>2024-11-03T11:53:20.860</time></trkpt><trkpt lat="56.8380427" lon="53.1429159"><time>2024-11-03T11:53:21.970</time></trkpt><trkpt lat="56.8380421" lon="53.1428304"><time>2024-11-03T11:53:38.873</time></trkpt><trkpt lat="56.8380683" lon="53.1427607"><time>2024-11-03T11:53:41.857</time></trkpt><trkpt lat="56.8380926" lon="53.1426820"><time>2024-11-03T11:53:44.863</time></trkpt><trkpt lat="56.8381077" lon="53.1425885"><time>2024-11-03T11:53:48.863</time></trkpt><trkpt lat="56.8381440" lon="53.1425342"><time>2024-11-03T11:53:51.863</time></trkpt><trkpt lat="56.8381622" lon="53.1424549"><time>2024-11-03T11:53:55.867</time></trkpt><trkpt lat="56.8381672" lon="53.1423628"><time>2024-11-03T11:54:00.857</time></trkpt><trkpt lat="56.8381625" lon="53.1422699"><time>2024-11-03T11:54:05.863</time></trkpt><trkpt lat="56.8381623" lon="53.1421875"><time>2024-11-03T11:54:09.860</time></trkpt><trkpt lat="56.8355235" lon="53.1375278"><time>2024-11-03T12:00:36.997</time></trkpt><trkpt lat="56.8355235" lon="53.1375278"><time>2024-11-03T12:00:37.027</time></trkpt><trkpt lat="56.8355318" lon="53.1375399"><time>2024-11-03T12:00:38.260</time></trkpt><trkpt lat="56.8355369" lon="53.1375754"><time>2024-11-03T12:00:39.377</time></trkpt><trkpt lat="56.8355540" lon="53.1376804"><time>2024-11-03T12:00:41.863</time></trkpt><trkpt lat="56.8374106" lon="53.1329142"><time>2024-11-03T12:07:59.107</time></trkpt><trkpt lat="56.8374220" lon="53.1329525"><time>2024-11-03T12:08:00.187</time></trkpt><trkpt lat="56.8374591" lon="53.1330329"><time>2024-11-03T12:08:02.860</time></trkpt><trkpt lat="56.8374647" lon="53.1330439"><time>2024-11-03T12:08:03.907</time></trkpt><trkpt lat="56.8374982" lon="53.1330839"><time>2024-11-03T12:08:07.877</time></trkpt><trkpt lat="56.8375116" lon="53.1331034"><time>2024-11-03T12:08:08.977</time></trkpt><trkpt lat="56.8375440" lon="53.1331739"><time>2024-11-03T12:08:33.877</time></trkpt><trkpt lat="56.8375954" lon="53.1331867"><time>2024-11-03T12:08:37.880</time></trkpt><trkpt lat="56.8376526" lon="53.1332210"><time>2024-11-03T12:08:41.867</time></trkpt><trkpt lat="56.8377008" lon="53.1332358"><time>2024-11-03T12:08:45.870</time></trkpt><trkpt lat="56.8377457" lon="53.1331994"><time>2024-11-03T12:08:49.873</time></trkpt><trkpt lat="56.8377386" lon="53.1330978"><time>2024-11-03T12:08:52.867</time></trkpt><trkpt lat="56.8377140" lon="53.1330290"><time>2024-11-03T12:08:55.877</time></trkpt><trkpt lat="56.8376785" lon="53.1329683"><time>2024-11-03T12:08:59.870</time></trkpt><trkpt lat="56.8376580" lon="53.1328784"><time>2024-11-03T12:09:02.870</time></trkpt><trkpt lat="56.8376225" lon="53.1328095"><time>2024-11-03T12:09:07.857</time></trkpt><trkpt lat="56.8352384" lon="53.1270318"><time>2024-11-03T12:15:41.670</time></trkpt><trkpt lat="56.8352464" lon="53.1270189"><time>2024-11-03T12:15:42.750</time></trkpt></trkseg></trk></gpx>